createdAt,value
2023-06-12T00:00:02.045Z,15.81
2023-06-12T00:02:28.661Z,15.68
2023-06-12T00:04:56.080Z,15.59
2023-06-12T00:07:22.874Z,15.53
2023-06-12T00:09:49.908Z,15.48
2023-06-12T00:12:18.362Z,15.43
2023-06-12T00:14:44.966Z,15.38
2023-06-12T00:17:11.860Z,15.34
2023-06-12T00:19:38.420Z,15.30
2023-06-12T00:22:05.191Z,15.21
2023-06-12T00:24:31.886Z,15.18
2023-06-12T00:26:58.469Z,15.15
2023-06-12T00:29:25.203Z,15.09
2023-06-12T00:31:53.214Z,15.06
2023-06-12T00:34:19.913Z,14.96
2023-06-12T00:36:49.732Z,14.86
2023-06-12T00:39:17.733Z,14.81
2023-06-12T00:41:47.124Z,14.80
2023-06-12T00:44:13.938Z,14.75
2023-06-12T00:46:40.623Z,14.74
2023-06-12T00:49:07.422Z,14.67
2023-06-12T00:51:34.092Z,14.63
2023-06-12T00:54:03.021Z,14.62
2023-06-12T00:56:29.486Z,14.53
2023-06-12T00:58:57.021Z,14.50
2023-06-12T01:01:23.795Z,14.50
2023-06-12T01:03:53.904Z,14.39
2023-06-12T01:06:28.362Z,14.38
2023-06-12T01:09:26.340Z,14.30
2023-06-12T01:11:56.734Z,14.28
2023-06-12T01:14:23.602Z,14.23
2023-06-12T01:16:50.261Z,14.19
2023-06-12T01:19:17.791Z,14.17
2023-06-12T01:21:46.141Z,14.11
2023-06-12T01:24:47.560Z,14.05
2023-06-12T01:27:41.478Z,13.94
2023-06-12T01:30:28.779Z,13.85
2023-06-12T01:33:01.254Z,13.79
2023-06-12T01:35:29.597Z,13.73
2023-06-12T01:38:08.057Z,13.70
2023-06-12T01:40:40.340Z,13.61
2023-06-12T01:43:07.425Z,13.52
2023-06-12T01:45:33.975Z,13.51
2023-06-12T01:48:01.799Z,13.47
2023-06-12T01:50:28.360Z,13.40
2023-06-12T01:52:55.160Z,13.39
2023-06-12T01:55:22.180Z,13.36
2023-06-12T01:57:48.977Z,13.30
2023-06-12T02:00:17.018Z,13.29
2023-06-12T02:02:44.111Z,13.18
2023-06-12T02:05:12.446Z,13.12
2023-06-12T02:07:39.069Z,13.11
2023-06-12T02:10:06.534Z,13.09
2023-06-12T02:12:33.349Z,13.04
2023-06-12T02:14:59.889Z,13.00
2023-06-12T02:17:26.407Z,12.95
2023-06-12T02:19:52.988Z,12.92
2023-06-12T02:22:19.539Z,12.89
2023-06-12T02:24:46.013Z,12.86
2023-06-12T02:27:15.188Z,12.80
2023-06-12T02:29:41.578Z,12.79
2023-06-12T02:32:08.248Z,12.77
2023-06-12T02:34:34.688Z,12.73
2023-06-12T02:37:01.105Z,12.71
2023-06-12T02:39:27.487Z,12.67
2023-06-12T02:41:53.853Z,12.63
2023-06-12T02:44:20.218Z,12.61
2023-06-12T02:46:55.462Z,12.59
2023-06-12T02:49:23.213Z,12.57
2023-06-12T02:51:49.579Z,12.50
2023-06-12T02:54:17.012Z,12.46
2023-06-12T02:56:43.949Z,12.44
2023-06-12T02:59:10.340Z,12.41
2023-06-12T03:01:36.840Z,12.39
2023-06-12T03:04:03.478Z,12.34
2023-06-12T03:06:29.939Z,12.35
2023-06-12T03:08:56.554Z,12.36
2023-06-12T03:11:23.132Z,12.37
2023-06-12T03:13:49.514Z,12.36
2023-06-12T03:16:15.901Z,12.35
2023-06-12T03:18:42.542Z,12.34
2023-06-12T03:21:08.954Z,12.34
2023-06-12T03:23:35.360Z,12.34
2023-06-12T03:26:01.762Z,12.32
2023-06-12T03:28:28.146Z,12.30
2023-06-12T03:30:54.572Z,12.35
2023-06-12T03:33:21.222Z,12.38
2023-06-12T03:35:47.622Z,12.42
2023-06-12T03:38:13.986Z,12.45
2023-06-12T03:40:40.377Z,12.46
2023-06-12T03:43:06.747Z,12.51
2023-06-12T03:45:33.126Z,12.52
2023-06-12T03:47:59.571Z,12.55
2023-06-12T03:50:26.007Z,12.57
2023-06-12T03:52:52.453Z,12.58
2023-06-12T03:55:18.874Z,12.60
2023-06-12T03:57:45.233Z,12.62
2023-06-12T04:00:12.313Z,12.63
2023-06-12T04:02:39.075Z,12.65
2023-06-12T04:05:05.695Z,12.71
2023-06-12T04:07:32.069Z,12.75
2023-06-12T04:09:58.455Z,12.79
2023-06-12T04:12:24.840Z,12.82
2023-06-12T04:14:51.247Z,12.85
2023-06-12T04:17:17.628Z,12.94
2023-06-12T04:19:43.974Z,12.96
2023-06-12T04:22:10.353Z,13.02
2023-06-12T04:24:36.753Z,13.06
2023-06-12T04:27:03.388Z,13.12
2023-06-12T04:29:29.817Z,13.21
2023-06-12T04:31:56.347Z,13.25
2023-06-12T04:34:23.008Z,13.32
2023-06-12T04:36:49.392Z,13.48
2023-06-12T04:39:15.758Z,13.57
2023-06-12T04:41:42.206Z,13.66
2023-06-12T04:44:08.604Z,13.79
2023-06-12T04:46:35.072Z,13.95
2023-06-12T04:49:01.569Z,14.07
2023-06-12T04:51:27.992Z,14.25
2023-06-12T04:53:54.945Z,14.23
2023-06-12T04:56:21.231Z,14.30
2023-06-12T04:58:48.211Z,14.39
2023-06-12T05:01:14.704Z,14.52
2023-06-12T05:03:42.180Z,14.62
2023-06-12T05:06:08.696Z,14.69
2023-06-12T05:08:35.383Z,14.83
2023-06-12T05:11:01.855Z,14.95
2023-06-12T05:13:28.240Z,15.04
2023-06-12T05:15:54.641Z,15.18
2023-06-12T05:18:21.248Z,15.24
2023-06-12T05:20:47.811Z,15.29
2023-06-12T05:23:14.203Z,15.44
2023-06-12T05:25:40.622Z,15.55
2023-06-12T05:28:07.010Z,15.70
2023-06-12T05:30:33.433Z,15.83
2023-06-12T05:32:59.886Z,15.88
2023-06-12T05:35:26.926Z,16.00
2023-06-12T05:37:53.221Z,16.06
2023-06-12T05:40:19.633Z,16.17
2023-06-12T05:42:46.123Z,16.42
2023-06-12T05:45:12.546Z,16.50
2023-06-12T05:47:39.059Z,16.67
2023-06-12T05:50:05.948Z,16.76
2023-06-12T05:52:32.291Z,16.89
2023-06-12T05:54:58.644Z,17.00
2023-06-12T05:57:25.141Z,17.17
2023-06-12T05:59:51.513Z,17.28
2023-06-12T06:02:17.954Z,17.48
2023-06-12T06:04:44.984Z,17.65
2023-06-12T06:07:18.315Z,17.72
2023-06-12T06:09:45.453Z,17.79
2023-06-12T06:12:11.866Z,17.89
2023-06-12T06:14:38.246Z,17.97
2023-06-12T06:17:04.756Z,18.08
2023-06-12T06:19:31.165Z,18.22
2023-06-12T06:21:58.576Z,18.31
2023-06-12T06:24:25.110Z,18.40
2023-06-12T06:26:51.634Z,18.48
2023-06-12T06:29:17.999Z,18.65
2023-06-12T06:31:44.477Z,18.64
2023-06-12T06:34:11.700Z,18.76
2023-06-12T06:36:38.119Z,18.85
2023-06-12T06:39:04.484Z,19.00
2023-06-12T06:41:30.833Z,19.07
2023-06-12T06:43:57.237Z,19.25
2023-06-12T06:46:23.681Z,19.36
2023-06-12T06:48:50.432Z,19.48
2023-06-12T06:51:17.026Z,19.54
2023-06-12T06:53:43.466Z,19.62
2023-06-12T06:56:09.945Z,19.71
2023-06-12T06:58:36.357Z,19.77
2023-06-12T07:01:02.794Z,19.93
2023-06-12T07:03:29.232Z,19.94
2023-06-12T07:05:55.788Z,19.97
2023-06-12T07:08:22.149Z,20.15
2023-06-12T07:10:48.654Z,20.31
2023-06-12T07:13:15.127Z,20.50
2023-06-12T07:15:41.494Z,20.61
2023-06-12T07:18:07.938Z,20.78
2023-06-12T07:20:34.321Z,20.85
2023-06-12T07:23:00.673Z,20.92
2023-06-12T07:25:27.085Z,20.99
2023-06-12T07:27:53.472Z,21.03
2023-06-12T07:30:19.872Z,21.09
2023-06-12T07:32:46.295Z,21.23
2023-06-12T07:35:12.953Z,21.33
2023-06-12T07:37:39.750Z,21.39
2023-06-12T07:40:06.316Z,21.62
2023-06-12T07:42:34.089Z,21.69
2023-06-12T07:45:00.557Z,21.83
2023-06-12T07:47:27.012Z,21.87
2023-06-12T07:49:53.413Z,22.01
2023-06-12T07:52:19.815Z,22.13
2023-06-12T07:54:46.210Z,22.18
2023-06-12T07:57:12.624Z,22.28
2023-06-12T07:59:39.030Z,22.38
2023-06-12T08:02:05.507Z,22.54
2023-06-12T08:04:31.953Z,22.63
2023-06-12T08:06:58.420Z,22.69
2023-06-12T08:09:24.805Z,22.81
2023-06-12T08:11:51.243Z,22.98
2023-06-12T08:14:17.856Z,23.06
2023-06-12T08:16:44.479Z,22.97
2023-06-12T08:19:19.869Z,23.25
2023-06-12T08:24:26.944Z,23.48
2023-06-12T08:26:53.534Z,23.65
2023-06-12T08:29:20.217Z,23.78
2023-06-12T08:31:46.865Z,23.88
2023-06-12T08:34:13.441Z,24.09
2023-06-12T08:36:40.231Z,24.18
2023-06-12T08:39:06.934Z,24.21
2023-06-12T08:41:38.358Z,24.29
2023-06-12T08:44:05.691Z,24.32
2023-06-12T08:46:32.442Z,24.58
2023-06-12T08:48:59.350Z,24.63
2023-06-12T08:51:28.269Z,24.79
2023-06-12T08:53:57.315Z,25.08
2023-06-12T08:56:24.425Z,25.12
2023-06-12T08:58:50.998Z,24.98
2023-06-12T09:01:19.052Z,24.78
2023-06-12T09:03:50.069Z,25.20
2023-06-12T09:06:17.897Z,25.23
2023-06-12T09:08:44.461Z,25.29
2023-06-12T09:11:12.262Z,25.35
2023-06-12T09:13:42.984Z,25.14
2023-06-12T09:16:15.323Z,25.36
2023-06-12T09:18:55.519Z,25.92
2023-06-12T09:21:24.084Z,25.74
2023-06-12T09:23:52.656Z,25.23
2023-06-12T09:26:20.670Z,25.31
2023-06-12T09:28:52.279Z,25.75
2023-06-12T09:31:19.039Z,26.33
2023-06-12T09:33:46.276Z,25.92
2023-06-12T09:36:17.107Z,25.39
2023-06-12T09:38:43.602Z,25.44
2023-06-12T09:41:10.480Z,25.22
2023-06-12T09:43:37.506Z,25.09
2023-06-12T09:46:06.468Z,25.08
2023-06-12T09:48:38.109Z,25.04
2023-06-12T09:51:11.218Z,25.50
2023-06-12T09:53:40.059Z,25.81
2023-06-12T09:56:11.134Z,25.56
2023-06-12T09:58:39.987Z,26.07
2023-06-12T10:01:07.599Z,26.74
2023-06-12T10:03:39.004Z,26.37
2023-06-12T10:06:07.927Z,26.58
2023-06-12T10:08:37.805Z,27.04
2023-06-12T10:11:05.114Z,26.96
2023-06-12T10:13:35.712Z,27.46
2023-06-12T10:16:03.070Z,28.02
2023-06-12T10:18:30.390Z,27.85
2023-06-12T10:20:59.409Z,27.44
2023-06-12T10:23:26.495Z,26.90
2023-06-12T10:25:55.384Z,27.39
2023-06-12T10:28:24.808Z,27.47
2023-06-12T10:31:17.425Z,28.11
2023-06-12T10:34:02.561Z,27.86
2023-06-12T10:36:43.836Z,28.11
2023-06-12T10:39:15.291Z,28.37
2023-06-12T10:42:05.534Z,27.83
2023-06-12T10:44:47.713Z,28.36
2023-06-12T10:47:22.291Z,28.06
2023-06-12T10:50:04.405Z,27.43
2023-06-12T10:52:31.075Z,26.64
2023-06-12T10:55:29.791Z,26.63
2023-06-12T10:58:02.301Z,26.30
2023-06-12T11:00:43.995Z,26.19
2023-06-12T11:03:13.030Z,26.32
2023-06-12T11:05:47.012Z,26.33
2023-06-12T11:08:13.783Z,26.61
2023-06-12T11:10:40.369Z,27.10
2023-06-12T11:13:07.068Z,27.39
2023-06-12T11:15:41.534Z,27.35
2023-06-12T11:18:09.591Z,26.66
2023-06-12T11:20:36.518Z,26.63
2023-06-12T11:23:03.308Z,27.20
2023-06-12T11:25:45.608Z,27.52
2023-06-12T11:28:13.698Z,27.41
2023-06-12T11:30:49.477Z,27.69
2023-06-12T11:33:24.273Z,27.37
2023-06-12T11:35:58.074Z,27.17
2023-06-12T11:40:54.351Z,27.82
2023-06-12T11:43:21.423Z,28.52
2023-06-12T11:45:49.272Z,28.48
2023-06-12T11:50:56.510Z,29.12
2023-06-12T11:53:23.422Z,29.30
2023-06-12T11:58:56.118Z,29.48
2023-06-12T12:01:22.785Z,28.83
2023-06-12T12:03:56.670Z,28.44
2023-06-12T12:06:24.720Z,28.66
2023-06-12T12:08:58.161Z,28.80
2023-06-12T12:11:30.029Z,28.74
2023-06-12T12:14:01.916Z,28.64
2023-06-12T12:16:29.988Z,29.08
2023-06-12T12:18:57.521Z,29.27
2023-06-12T12:21:24.536Z,29.03
2023-06-12T12:23:53.183Z,29.23
2023-06-12T12:26:21.577Z,29.11
2023-06-12T12:28:48.479Z,28.94
2023-06-12T12:31:17.282Z,29.47
2023-06-12T12:33:45.422Z,29.57
2023-06-12T12:36:11.885Z,29.76
2023-06-12T12:38:38.435Z,29.90
2023-06-12T12:41:04.993Z,29.96
2023-06-12T12:43:31.483Z,29.84
2023-06-12T12:45:58.019Z,29.94
2023-06-12T12:48:26.153Z,30.12
2023-06-12T12:51:07.791Z,30.25
2023-06-12T12:53:36.163Z,30.32
2023-06-12T12:56:03.126Z,30.45
2023-06-12T12:58:30.336Z,30.48
2023-06-12T13:00:57.191Z,30.84
2023-06-12T13:03:23.930Z,30.71
2023-06-12T13:05:50.821Z,30.91
2023-06-12T13:08:17.396Z,30.24
2023-06-12T13:10:43.966Z,30.40
2023-06-12T13:13:11.992Z,30.50
2023-06-12T13:15:43.894Z,30.87
2023-06-12T13:18:11.067Z,30.63
2023-06-12T13:20:37.713Z,30.50
2023-06-12T13:23:05.059Z,30.40
2023-06-12T13:25:31.838Z,30.45
2023-06-12T13:27:59.034Z,30.10
2023-06-12T13:30:29.053Z,30.25
2023-06-12T13:32:56.996Z,30.11
2023-06-12T13:35:25.312Z,30.12
2023-06-12T13:37:52.108Z,30.40
2023-06-12T13:40:18.958Z,30.38
2023-06-12T13:42:46.309Z,30.81
2023-06-12T13:45:13.867Z,30.75
2023-06-12T13:47:40.717Z,30.65
2023-06-12T13:50:07.729Z,30.66
2023-06-12T13:52:34.373Z,31.19
2023-06-12T13:55:00.847Z,30.78
2023-06-12T13:57:27.532Z,30.72
2023-06-12T13:59:54.062Z,30.35
2023-06-12T14:02:21.694Z,30.08
2023-06-12T14:04:49.038Z,29.80
2023-06-12T14:07:15.776Z,29.60
2023-06-12T14:09:42.958Z,29.90
2023-06-12T14:12:09.788Z,30.15
2023-06-12T14:14:36.664Z,30.19
2023-06-12T14:17:03.281Z,30.48
2023-06-12T14:19:30.097Z,30.17
2023-06-12T14:21:58.102Z,29.81
2023-06-12T14:24:37.266Z,29.58
2023-06-12T14:27:05.449Z,29.62
2023-06-12T14:29:32.219Z,29.85
2023-06-12T14:31:59.079Z,29.74
2023-06-12T14:34:26.995Z,29.56
2023-06-12T14:36:53.626Z,29.71
2023-06-12T14:39:20.396Z,29.51
2023-06-12T14:41:47.156Z,29.57
2023-06-12T14:44:16.067Z,29.51
2023-06-12T14:46:43.085Z,29.19
2023-06-12T14:49:10.748Z,29.06
2023-06-12T14:51:37.442Z,28.78
2023-06-12T14:54:04.280Z,28.85
2023-06-12T14:56:31.398Z,28.88
2023-06-12T14:58:57.872Z,28.88
2023-06-12T15:01:24.555Z,28.84
2023-06-12T15:03:51.469Z,28.71
2023-06-12T15:06:18.791Z,28.71
2023-06-12T15:08:46.495Z,28.75
2023-06-12T15:11:13.307Z,28.89
2023-06-12T15:13:42.116Z,28.74
2023-06-12T15:16:09.450Z,28.93
2023-06-12T15:21:06.040Z,29.06
2023-06-12T15:23:32.527Z,29.24
2023-06-12T15:25:59.175Z,29.11
2023-06-12T15:28:25.645Z,28.70
2023-06-12T15:30:52.041Z,28.46
2023-06-12T15:33:19.055Z,28.54
2023-06-12T15:35:45.684Z,28.44
2023-06-12T15:38:31.145Z,28.66
2023-06-12T15:40:57.731Z,28.80
2023-06-12T15:43:24.264Z,28.32
2023-06-12T15:45:50.772Z,28.21
2023-06-12T15:48:17.852Z,27.73
2023-06-12T15:50:44.730Z,27.82
2023-06-12T15:53:11.217Z,28.08
2023-06-12T15:55:38.074Z,28.10
2023-06-12T15:58:04.582Z,27.85
2023-06-12T16:00:31.293Z,27.63
2023-06-12T16:03:02.827Z,27.88
2023-06-12T16:05:29.722Z,27.88
2023-06-12T16:07:56.553Z,28.01
2023-06-12T16:10:26.548Z,28.11
2023-06-12T16:12:55.354Z,28.07
2023-06-12T16:15:22.648Z,28.11
2023-06-12T16:17:49.243Z,28.07
2023-06-12T16:20:16.072Z,27.74
2023-06-12T16:22:42.551Z,27.75
2023-06-12T16:25:12.707Z,27.78
2023-06-12T16:27:39.675Z,27.77
2023-06-12T16:30:06.853Z,27.52
2023-06-12T16:32:33.452Z,27.46
2023-06-12T16:35:00.322Z,27.19
2023-06-12T16:37:27.183Z,27.05
2023-06-12T16:40:13.814Z,26.89
2023-06-12T16:42:40.680Z,27.04
2023-06-12T16:45:08.276Z,27.03
2023-06-12T16:47:35.702Z,26.90
2023-06-12T16:50:02.412Z,26.70
2023-06-12T16:52:28.993Z,26.74
2023-06-12T16:54:55.822Z,26.61
2023-06-12T16:57:24.505Z,26.75
2023-06-12T16:59:51.096Z,26.67
2023-06-12T17:02:17.963Z,26.49
2023-06-12T17:04:46.152Z,26.52
2023-06-12T17:07:13.306Z,26.29
2023-06-12T17:09:40.440Z,26.27
2023-06-12T17:12:07.157Z,26.35
2023-06-12T17:14:33.873Z,26.35
2023-06-12T17:17:00.714Z,26.44
2023-06-12T17:19:27.510Z,26.56
2023-06-12T17:21:58.929Z,26.54
2023-06-12T17:24:25.663Z,26.48
2023-06-12T17:26:52.522Z,26.24
2023-06-12T17:29:19.070Z,26.02
2023-06-12T17:31:46.194Z,25.89
2023-06-12T17:34:13.063Z,25.71
2023-06-12T17:36:39.617Z,25.66
2023-06-12T17:39:06.060Z,25.58
2023-06-12T17:41:32.883Z,25.63
2023-06-12T17:44:00.879Z,25.52
2023-06-12T17:46:27.472Z,25.28
2023-06-12T17:48:54.401Z,25.12
2023-06-12T17:51:21.166Z,25.04
2023-06-12T17:53:47.996Z,24.92
2023-06-12T17:56:14.757Z,24.88
2023-06-12T17:58:44.343Z,24.74
2023-06-12T18:01:12.228Z,24.73
2023-06-12T18:03:40.429Z,24.59
2023-06-12T18:06:14.612Z,24.56
2023-06-12T18:08:43.563Z,24.55
2023-06-12T18:11:10.764Z,24.35
2023-06-12T18:13:39.418Z,24.27
2023-06-12T18:16:06.315Z,24.24
2023-06-12T18:18:35.597Z,24.18
2023-06-12T18:21:07.678Z,24.14
2023-06-12T18:23:34.468Z,24.08
2023-06-12T18:26:00.929Z,23.96
2023-06-12T18:28:27.796Z,23.86
2023-06-12T18:30:54.369Z,23.80
2023-06-12T18:33:20.971Z,23.69
2023-06-12T18:35:47.751Z,23.64
2023-06-12T18:38:14.807Z,23.55
2023-06-12T18:40:41.459Z,23.45
2023-06-12T18:43:08.008Z,23.39
2023-06-12T18:45:34.397Z,23.20
2023-06-12T18:48:00.974Z,23.13
2023-06-12T18:50:27.431Z,23.04
2023-06-12T18:52:53.870Z,22.94
2023-06-12T18:55:20.379Z,22.89
2023-06-12T18:57:47.012Z,22.81
2023-06-12T19:00:13.801Z,22.70
2023-06-12T19:02:40.399Z,22.64
2023-06-12T19:05:06.821Z,22.59
2023-06-12T19:07:34.189Z,22.50
2023-06-12T19:10:00.809Z,22.34
2023-06-12T19:12:27.282Z,22.27
2023-06-12T19:14:53.841Z,22.16
2023-06-12T19:17:20.277Z,22.04
2023-06-12T19:19:48.569Z,21.96
2023-06-12T19:22:17.243Z,21.86
2023-06-12T19:24:44.762Z,21.77
2023-06-12T19:27:11.274Z,21.71
2023-06-12T19:29:37.731Z,21.60
2023-06-12T19:32:04.655Z,21.53
2023-06-12T19:34:31.680Z,21.41
2023-06-12T19:36:58.502Z,21.36
2023-06-12T19:39:27.801Z,21.29
2023-06-12T19:41:54.342Z,21.19
2023-06-12T19:44:21.314Z,21.15
2023-06-12T19:46:48.158Z,21.07
2023-06-12T19:49:14.772Z,20.97
2023-06-12T19:51:41.571Z,20.83
2023-06-12T19:54:08.138Z,20.71
2023-06-12T19:56:34.602Z,20.68
2023-06-12T19:59:01.495Z,20.52
2023-06-12T20:01:29.148Z,20.42
2023-06-12T20:03:55.817Z,20.34
2023-06-12T20:06:23.328Z,20.23
2023-06-12T20:08:50.606Z,20.17
2023-06-12T20:11:17.425Z,19.95
2023-06-12T20:13:44.226Z,19.87
2023-06-12T20:16:10.823Z,19.84
2023-06-12T20:18:37.712Z,19.81
2023-06-12T20:21:04.619Z,19.84
2023-06-12T20:23:34.011Z,19.78
2023-06-12T20:26:00.686Z,19.68
2023-06-12T20:28:27.926Z,19.61
2023-06-12T20:30:54.841Z,19.54
2023-06-12T20:33:21.729Z,19.50
2023-06-12T20:35:48.603Z,19.43
2023-06-12T20:38:16.959Z,19.36
2023-06-12T20:40:43.976Z,19.34
2023-06-12T20:43:13.716Z,19.29
2023-06-12T20:45:41.884Z,19.21
2023-06-12T20:48:08.496Z,19.13
2023-06-12T20:50:35.415Z,19.08
2023-06-12T20:53:01.967Z,18.97
2023-06-12T20:55:30.018Z,18.91
2023-06-12T20:57:56.688Z,18.89
2023-06-12T21:00:23.587Z,18.81
2023-06-12T21:02:50.121Z,18.71
2023-06-12T21:05:17.242Z,18.68
2023-06-12T21:07:44.882Z,18.62
2023-06-12T21:10:11.643Z,18.54
2023-06-12T21:12:38.026Z,18.46
2023-06-12T21:15:04.978Z,18.34
2023-06-12T21:17:32.680Z,18.27
2023-06-12T21:19:59.556Z,18.19
2023-06-12T21:22:40.390Z,18.13
2023-06-12T21:25:08.282Z,18.09
2023-06-12T21:27:35.005Z,17.99
2023-06-12T21:30:02.232Z,17.97
2023-06-12T21:32:29.163Z,17.87
2023-06-12T21:34:57.185Z,17.80
2023-06-12T21:37:23.942Z,17.76
2023-06-12T21:39:51.255Z,17.73
2023-06-12T21:42:17.779Z,17.69
2023-06-12T21:44:44.330Z,17.67
2023-06-12T21:47:10.860Z,17.55
2023-06-12T21:49:37.692Z,17.43
2023-06-12T21:52:04.248Z,17.37
2023-06-12T21:54:31.034Z,17.31
2023-06-12T21:56:57.416Z,17.22
2023-06-12T21:59:25.820Z,17.21
2023-06-12T22:01:52.535Z,17.13
2023-06-12T22:04:19.172Z,17.10
2023-06-12T22:06:45.721Z,17.06
2023-06-12T22:09:12.559Z,17.01
2023-06-12T22:11:38.996Z,17.01
2023-06-12T22:14:06.067Z,16.97
2023-06-12T22:16:32.793Z,16.87
2023-06-12T22:18:59.295Z,16.78
2023-06-12T22:21:26.137Z,16.68
2023-06-12T22:23:52.989Z,16.70
2023-06-12T22:26:19.518Z,16.60
2023-06-12T22:28:46.290Z,16.52
2023-06-12T22:31:12.783Z,16.47
2023-06-12T22:33:39.608Z,16.39
2023-06-12T22:36:06.654Z,16.36
2023-06-12T22:38:35.289Z,16.28
2023-06-12T22:41:01.784Z,16.24
2023-06-12T22:43:29.826Z,16.24
2023-06-12T22:45:56.468Z,16.18
2023-06-12T22:48:23.318Z,16.10
2023-06-12T22:50:49.739Z,16.08
2023-06-12T22:53:16.507Z,15.98
2023-06-12T22:55:43.165Z,15.92
2023-06-12T22:58:10.478Z,15.94
2023-06-12T23:00:37.398Z,15.88
2023-06-12T23:03:03.956Z,15.85
2023-06-12T23:05:30.791Z,15.77
2023-06-12T23:07:57.570Z,15.77
2023-06-12T23:10:24.406Z,15.73
2023-06-12T23:12:50.732Z,15.64
2023-06-12T23:15:17.384Z,15.61
2023-06-12T23:17:44.044Z,15.56
2023-06-12T23:20:11.897Z,15.56
2023-06-12T23:22:39.023Z,15.50
2023-06-12T23:25:08.915Z,15.48
2023-06-12T23:27:35.703Z,15.44
2023-06-12T23:30:02.263Z,15.44
2023-06-12T23:32:29.109Z,15.37
2023-06-12T23:34:55.792Z,15.34
2023-06-12T23:37:22.839Z,15.30
2023-06-12T23:39:49.717Z,15.28
2023-06-12T23:42:16.290Z,15.25
2023-06-12T23:44:43.040Z,15.23
2023-06-12T23:47:09.840Z,15.18
2023-06-12T23:49:36.675Z,15.19
2023-06-12T23:52:03.288Z,15.14
2023-06-12T23:54:29.912Z,15.05
2023-06-12T23:56:56.384Z,15.01
2023-06-12T23:59:23.517Z,14.97
